Eurika — LYRZ — position and weather

sailwx.info

Track history (hours):
 
Tides and Currents Weather Stations Pressure Air Temp Water Temp Dewpoint Dewpoint Depression Visibility Wind Speed Wind Dir Waves Ship Positions

Eurika

Last reported at 2018-Feb-16 12:42 UTC. Time now 2018-Feb-18 04:54 UTC.
Position N 43°26' E 004°44'.

Length 79 m; draft 2.2 m.

MMSI: 277335000.

Date/timePositionNaut miles runAvg speedWind from/ knotsBaromVisibWave heightAir tempDewpointWater temp
2018-Feb-16 12:42N 43°26' E 004°44'1 7.2
2018-Feb-16 12:30N 43°25' E 004°45'3 2.0
2018-Feb-16 11:06N 43°23' E 004°48'0 0.0
2018-Feb-16 10:56N 43°23' E 004°48'0 0.0
2018-Feb-16 06:52N 43°23' E 004°48'0 0.0
2018-Feb-16 06:14N 43°23' E 004°48'0 0.0
2018-Feb-16 05:56N 43°23' E 004°48'0 0.0
2018-Feb-16 05:30N 43°23' E 004°48'0 0.1
2018-Feb-16 04:36N 43°23' E 004°49'0 0.0
2018-Feb-16 04:30N 43°23' E 004°49'3 3.0
2018-Feb-16 03:34N 43°23' E 004°52'0 8.7
2018-Feb-16 03:30N 43°24' E 004°53'4 8.0
2018-Feb-16 03:00N 43°22' E 004°58'192 7.5
2018-Feb-15 01:13N 43°26' E 009°22'2 8.5
2018-Feb-15 00:58N 43°26' E 009°25'4 8.5
2018-Feb-15 00:30N 43°27' E 009°31'4 8.4
2018-Feb-14 23:59N 43°28' E 009°36'4 8.5
2018-Feb-14 23:30N 43°29' E 009°42'4 8.3
2018-Feb-14 23:00N 43°30' E 009°47'4 8.6
2018-Feb-14 22:30N 43°31' E 009°53'4 8.6
2018-Feb-14 22:00N 43°31' E 009°59'4 8.5
2018-Feb-14 21:30N 43°30' E 010°05'4 8.2
2018-Feb-14 21:00N 43°31' E 010°10'4 8.4
2018-Feb-14 20:30N 43°32' E 010°16'2 4.1
2018-Feb-14 19:58N 43°34' E 010°18'0 0.0
2018-Feb-14 19:28N 43°34' E 010°18'0 0.0
2018-Feb-14 18:58N 43°34' E 010°18'0 0.0
2018-Feb-14 18:28N 43°34' E 010°18'0 0.0
2018-Feb-14 17:58N 43°34' E 010°18'0 0.0
2018-Feb-14 17:28N 43°34' E 010°18'0 0.0
2018-Feb-14 16:55N 43°34' E 010°18'0 0.0
2018-Feb-14 16:28N 43°34' E 010°18'0 0.0
2018-Feb-14 15:58N 43°34' E 010°18'0 0.0
2018-Feb-14 15:29N 43°34' E 010°18'0 0.0
2018-Feb-14 15:00N 43°34' E 010°18'0 0.0
2018-Feb-14 14:30N 43°34' E 010°18'0 0.0
2018-Feb-14 14:00N 43°34' E 010°18'0 0.0
2018-Feb-14 13:30N 43°34' E 010°18'0 0.0
2018-Feb-14 13:00N 43°34' E 010°18'0 0.0
2018-Feb-14 09:26N 43°34' E 010°18'0 0.0
2018-Feb-14 09:00N 43°34' E 010°18'0 0.0
2018-Feb-14 08:30N 43°34' E 010°18'0 0.0
2018-Feb-14 08:00N 43°34' E 010°18'0 0.0
2018-Feb-14 07:30N 43°34' E 010°18'0 0.0
2018-Feb-14 07:00N 43°34' E 010°18'0 0.0
2018-Feb-14 06:30N 43°34' E 010°18'0 0.0
2018-Feb-14 06:00N 43°34' E 010°18'0 0.0
2018-Feb-14 05:30N 43°34' E 010°18'0 0.0
2018-Feb-14 05:00N 43°34' E 010°18'0 0.0
2018-Feb-14 04:30N 43°34' E 010°18'0 0.0
2018-Feb-14 04:00N 43°34' E 010°18'0 0.0
2018-Feb-14 03:30N 43°34' E 010°18'0 0.0
2018-Feb-14 03:00N 43°34' E 010°18'0 0.0
2018-Feb-14 02:30N 43°34' E 010°18'0 0.0
2018-Feb-14 02:00N 43°34' E 010°18'0 0.0
2018-Feb-14 01:30N 43°34' E 010°18'0 0.0
2018-Feb-14 01:00N 43°34' E 010°18'0 0.0
2018-Feb-14 00:30N 43°34' E 010°18'0 0.0
2018-Feb-14 00:00N 43°34' E 010°18'0 0.0
2018-Feb-13 23:30N 43°34' E 010°18'0 0.0
2018-Feb-13 22:51N 43°34' E 010°18'1 4.2
2018-Feb-13 22:30N 43°32' E 010°17'2 3.3
2018-Feb-13 21:58N 43°31' E 010°17'0 0.0
2018-Feb-13 21:28N 43°31' E 010°17'0 0.0
2018-Feb-13 20:58N 43°31' E 010°17'0 0.0
2018-Feb-13 20:28N 43°31' E 010°17'0 0.0
2018-Feb-13 19:58N 43°31' E 010°17'0 0.0
2018-Feb-13 19:19N 43°31' E 010°17'0 0.1
2018-Feb-13 18:55N 43°31' E 010°17'0 0.0
2018-Feb-13 18:28N 43°31' E 010°17'0 0.0
2018-Feb-13 17:55N 43°31' E 010°17'0 0.0
2018-Feb-13 17:25N 43°31' E 010°17'0 0.0
2018-Feb-13 16:58N 43°31' E 010°17'0 0.0
2018-Feb-13 16:28N 43°31' E 010°17'0 0.0
2018-Feb-13 16:00N 43°31' E 010°17'0 0.0
2018-Feb-13 15:29N 43°31' E 010°17'0 0.0
2018-Feb-13 14:56N 43°31' E 010°17'0 0.0
2018-Feb-13 14:20N 43°31' E 010°17'0 0.0
2018-Feb-13 13:59N 43°31' E 010°17'0 0.0
2018-Feb-13 13:29N 43°31' E 010°17'0 0.0
2018-Feb-13 13:00N 43°31' E 010°17'0 0.0
2018-Feb-13 12:21N 43°31' E 010°17'0 0.0
2018-Feb-13 12:00N 43°31' E 010°17'0 0.0
2018-Feb-13 11:24N 43°31' E 010°17'0 0.0
2018-Feb-13 10:57N 43°31' E 010°17'0 0.1
2018-Feb-13 10:27N 43°31' E 010°17'0 0.0
2018-Feb-13 10:00N 43°31' E 010°17'0 0.0
2018-Feb-13 09:30N 43°31' E 010°17'0 0.0
2018-Feb-13 09:00N 43°31' E 010°17'0 0.0
2018-Feb-13 08:30N 43°31' E 010°17'0 0.0
2018-Feb-13 08:00N 43°31' E 010°17'0 0.0
2018-Feb-13 07:30N 43°31' E 010°17'0 0.0
2018-Feb-13 07:00N 43°31' E 010°17'0 0.0
2018-Feb-13 06:27N 43°31' E 010°17'0 0.0
2018-Feb-13 06:00N 43°31' E 010°17'0 0.0
2018-Feb-13 05:27N 43°31' E 010°17'0 0.0
2018-Feb-13 05:00N 43°31' E 010°17'0 0.0
2018-Feb-13 04:30N 43°31' E 010°17'0 0.0
2018-Feb-13 04:00N 43°31' E 010°17'0 0.0
2018-Feb-13 03:30N 43°31' E 010°17'0 0.0
2018-Feb-13 03:00N 43°31' E 010°17'0 0.1
2018-Feb-13 02:30N 43°31' E 010°17'0 0.1
2018-Feb-13 02:00N 43°31' E 010°17'0 0.0
2018-Feb-13 01:27N 43°31' E 010°17'0 0.0
2018-Feb-13 00:57N 43°31' E 010°17'0 0.0
2018-Feb-13 00:27N 43°31' E 010°17'0 0.0
2018-Feb-13 00:00N 43°31' E 010°17'0 0.1
2018-Feb-12 23:30N 43°31' E 010°17'0 0.1
2018-Feb-12 23:00N 43°31' E 010°17'0 0.0
2018-Feb-12 22:30N 43°31' E 010°17'0 0.1
2018-Feb-12 22:00N 43°31' E 010°17'0 0.0
2018-Feb-12 21:30N 43°31' E 010°17'0 0.1
2018-Feb-12 21:00N 43°31' E 010°17'0 0.1
2018-Feb-12 20:29N 43°31' E 010°17'0 0.2
2018-Feb-12 19:59N 43°31' E 010°17'0 0.1
2018-Feb-12 19:29N 43°31' E 010°17'0 0.1
2018-Feb-12 18:56N 43°31' E 010°17'0 0.1
2018-Feb-12 18:29N 43°31' E 010°17'0 0.1
2018-Feb-12 17:59N 43°31' E 010°17'0 0.0
2018-Feb-12 17:26N 43°31' E 010°17'0 0.1
2018-Feb-12 16:59N 43°31' E 010°17'0 0.1
2018-Feb-12 16:29N 43°31' E 010°17'0 0.1
2018-Feb-12 15:59N 43°31' E 010°17'0 0.0
2018-Feb-12 15:14N 43°31' E 010°17'0 0.0
2018-Feb-12 14:53N 43°31' E 010°17'0 0.0
2018-Feb-12 14:29N 43°31' E 010°17'0 0.0
2018-Feb-12 13:59N 43°31' E 010°17'0 0.0
2018-Feb-12 13:26N 43°31' E 010°17'0 0.0
2018-Feb-12 12:56N 43°31' E 010°17'0 0.0
2018-Feb-12 12:23N 43°31' E 010°17'0 0.0
2018-Feb-12 11:56N 43°31' E 010°17'0 0.0
2018-Feb-12 11:29N 43°31' E 010°17'0 0.0
2018-Feb-12 10:57N 43°31' E 010°17'0 0.0
2018-Feb-12 10:30N 43°31' E 010°17'0 0.0
2018-Feb-12 10:00N 43°31' E 010°17'0 0.0
2018-Feb-12 09:29N 43°31' E 010°17'0 0.0
2018-Feb-12 09:00N 43°31' E 010°17'0 0.0
2018-Feb-12 08:30N 43°31' E 010°17'0 0.1
2018-Feb-12 08:00N 43°31' E 010°17'0 0.0
2018-Feb-12 07:30N 43°31' E 010°17'0 0.0
2018-Feb-12 07:00N 43°31' E 010°17'0 0.0
2018-Feb-12 06:30N 43°31' E 010°17'2 3.3
2018-Feb-12 06:00N 43°29' E 010°16'2 4.8
2018-Feb-12 05:30N 43°30' E 010°13'3 5.7
2018-Feb-12 05:00N 43°30' E 010°09'3 5.4
2018-Feb-12 04:30N 43°31' E 010°05'3 5.6
2018-Feb-12 04:00N 43°31' E 010°01'3 5.7
2018-Feb-12 03:30N 43°31' E 009°58'3 6.0
2018-Feb-12 03:00N 43°31' E 009°53'3 6.3
2018-Feb-12 02:30N 43°30' E 009°49'3 6.7
2018-Feb-12 01:59N 43°30' E 009°44'3 7.1
2018-Feb-12 01:30N 43°29' E 009°40'3 6.7
2018-Feb-12 01:00N 43°29' E 009°35'3 6.5
2018-Feb-12 00:30N 43°28' E 009°31'3 6.4
2018-Feb-12 00:00N 43°28' E 009°26'4 6.4
2018-Feb-11 23:26N 43°28' E 009°21'98 6.9
2018-Feb-11 09:06N 43°10' E 007°08'1 7.3
2018-Feb-11 08:56N 43°10' E 007°07'93 6.5
2018-Feb-10 18:40N 43°18' E 004°60'1 8.4
2018-Feb-10 18:29N 43°19' E 004°59'4 8.5
2018-Feb-10 18:00N 43°23' E 004°57'6 4.4
2018-Feb-10 16:40N 43°23' E 004°49'0 0.4
2018-Feb-10 16:20N 43°23' E 004°48'  
Track history (hours):
 
Tides and Currents Weather Stations Pressure Air Temp Water Temp Dewpoint Dewpoint Depression Visibility Wind Speed Wind Dir Waves Ship Positions

Eurika

Last reported at 2018-Feb-16 12:42 UTC. Time now 2018-Feb-18 04:54 UTC.
Position N 43°26' E 004°44'.

Length 79 m; draft 2.2 m.

MMSI: 277335000.

Date/timePositionNaut miles runAvg speedWind from/ knotsBaromVisibWave heightAir tempDewpointWater temp
2018-Feb-16 12:42N 43°26' E 004°44'1 7.2
2018-Feb-16 12:30N 43°25' E 004°45'3 2.0
2018-Feb-16 11:06N 43°23' E 004°48'0 0.0
2018-Feb-16 10:56N 43°23' E 004°48'0 0.0
2018-Feb-16 06:52N 43°23' E 004°48'0 0.0
2018-Feb-16 06:14N 43°23' E 004°48'0 0.0
2018-Feb-16 05:56N 43°23' E 004°48'0 0.0
2018-Feb-16 05:30N 43°23' E 004°48'0 0.1
2018-Feb-16 04:36N 43°23' E 004°49'0 0.0
2018-Feb-16 04:30N 43°23' E 004°49'3 3.0
2018-Feb-16 03:34N 43°23' E 004°52'0 8.7
2018-Feb-16 03:30N 43°24' E 004°53'4 8.0
2018-Feb-16 03:00N 43°22' E 004°58'192 7.5
2018-Feb-15 01:13N 43°26' E 009°22'2 8.5
2018-Feb-15 00:58N 43°26' E 009°25'4 8.5
2018-Feb-15 00:30N 43°27' E 009°31'4 8.4
2018-Feb-14 23:59N 43°28' E 009°36'4 8.5
2018-Feb-14 23:30N 43°29' E 009°42'4 8.3
2018-Feb-14 23:00N 43°30' E 009°47'4 8.6
2018-Feb-14 22:30N 43°31' E 009°53'4 8.6
2018-Feb-14 22:00N 43°31' E 009°59'4 8.5
2018-Feb-14 21:30N 43°30' E 010°05'4 8.2
2018-Feb-14 21:00N 43°31' E 010°10'4 8.4
2018-Feb-14 20:30N 43°32' E 010°16'2 4.1
2018-Feb-14 19:58N 43°34' E 010°18'0 0.0
2018-Feb-14 19:28N 43°34' E 010°18'0 0.0
2018-Feb-14 18:58N 43°34' E 010°18'0 0.0
2018-Feb-14 18:28N 43°34' E 010°18'0 0.0
2018-Feb-14 17:58N 43°34' E 010°18'0 0.0
2018-Feb-14 17:28N 43°34' E 010°18'0 0.0
2018-Feb-14 16:55N 43°34' E 010°18'0 0.0
2018-Feb-14 16:28N 43°34' E 010°18'0 0.0
2018-Feb-14 15:58N 43°34' E 010°18'0 0.0
2018-Feb-14 15:29N 43°34' E 010°18'0 0.0
2018-Feb-14 15:00N 43°34' E 010°18'0 0.0
2018-Feb-14 14:30N 43°34' E 010°18'0 0.0
2018-Feb-14 14:00N 43°34' E 010°18'0 0.0
2018-Feb-14 13:30N 43°34' E 010°18'0 0.0
2018-Feb-14 13:00N 43°34' E 010°18'0 0.0
2018-Feb-14 09:26N 43°34' E 010°18'0 0.0
2018-Feb-14 09:00N 43°34' E 010°18'0 0.0
2018-Feb-14 08:30N 43°34' E 010°18'0 0.0
2018-Feb-14 08:00N 43°34' E 010°18'0 0.0
2018-Feb-14 07:30N 43°34' E 010°18'0 0.0
2018-Feb-14 07:00N 43°34' E 010°18'0 0.0
2018-Feb-14 06:30N 43°34' E 010°18'0 0.0
2018-Feb-14 06:00N 43°34' E 010°18'0 0.0
2018-Feb-14 05:30N 43°34' E 010°18'0 0.0
2018-Feb-14 05:00N 43°34' E 010°18'0 0.0
2018-Feb-14 04:30N 43°34' E 010°18'0 0.0
2018-Feb-14 04:00N 43°34' E 010°18'0 0.0
2018-Feb-14 03:30N 43°34' E 010°18'0 0.0
2018-Feb-14 03:00N 43°34' E 010°18'0 0.0
2018-Feb-14 02:30N 43°34' E 010°18'0 0.0
2018-Feb-14 02:00N 43°34' E 010°18'0 0.0
2018-Feb-14 01:30N 43°34' E 010°18'0 0.0
2018-Feb-14 01:00N 43°34' E 010°18'0 0.0
2018-Feb-14 00:30N 43°34' E 010°18'0 0.0
2018-Feb-14 00:00N 43°34' E 010°18'0 0.0
2018-Feb-13 23:30N 43°34' E 010°18'0 0.0
2018-Feb-13 22:51N 43°34' E 010°18'1 4.2
2018-Feb-13 22:30N 43°32' E 010°17'2 3.3
2018-Feb-13 21:58N 43°31' E 010°17'0 0.0
2018-Feb-13 21:28N 43°31' E 010°17'0 0.0
2018-Feb-13 20:58N 43°31' E 010°17'0 0.0
2018-Feb-13 20:28N 43°31' E 010°17'0 0.0
2018-Feb-13 19:58N 43°31' E 010°17'0 0.0
2018-Feb-13 19:19N 43°31' E 010°17'0 0.1
2018-Feb-13 18:55N 43°31' E 010°17'0 0.0
2018-Feb-13 18:28N 43°31' E 010°17'0 0.0
2018-Feb-13 17:55N 43°31' E 010°17'0 0.0
2018-Feb-13 17:25N 43°31' E 010°17'0 0.0
2018-Feb-13 16:58N 43°31' E 010°17'0 0.0
2018-Feb-13 16:28N 43°31' E 010°17'0 0.0
2018-Feb-13 16:00N 43°31' E 010°17'0 0.0
2018-Feb-13 15:29N 43°31' E 010°17'0 0.0
2018-Feb-13 14:56N 43°31' E 010°17'0 0.0
2018-Feb-13 14:20N 43°31' E 010°17'0 0.0
2018-Feb-13 13:59N 43°31' E 010°17'0 0.0
2018-Feb-13 13:29N 43°31' E 010°17'0 0.0
2018-Feb-13 13:00N 43°31' E 010°17'0 0.0
2018-Feb-13 12:21N 43°31' E 010°17'0 0.0
2018-Feb-13 12:00N 43°31' E 010°17'0 0.0
2018-Feb-13 11:24N 43°31' E 010°17'0 0.0
2018-Feb-13 10:57N 43°31' E 010°17'0 0.1
2018-Feb-13 10:27N 43°31' E 010°17'0 0.0
2018-Feb-13 10:00N 43°31' E 010°17'0 0.0
2018-Feb-13 09:30N 43°31' E 010°17'0 0.0
2018-Feb-13 09:00N 43°31' E 010°17'0 0.0
2018-Feb-13 08:30N 43°31' E 010°17'0 0.0
2018-Feb-13 08:00N 43°31' E 010°17'0 0.0
2018-Feb-13 07:30N 43°31' E 010°17'0 0.0
2018-Feb-13 07:00N 43°31' E 010°17'0 0.0
2018-Feb-13 06:27N 43°31' E 010°17'0 0.0
2018-Feb-13 06:00N 43°31' E 010°17'0 0.0
2018-Feb-13 05:27N 43°31' E 010°17'0 0.0
2018-Feb-13 05:00N 43°31' E 010°17'0 0.0
2018-Feb-13 04:30N 43°31' E 010°17'0 0.0
2018-Feb-13 04:00N 43°31' E 010°17'0 0.0
2018-Feb-13 03:30N 43°31' E 010°17'0 0.0
2018-Feb-13 03:00N 43°31' E 010°17'0 0.1
2018-Feb-13 02:30N 43°31' E 010°17'0 0.1
2018-Feb-13 02:00N 43°31' E 010°17'0 0.0
2018-Feb-13 01:27N 43°31' E 010°17'0 0.0
2018-Feb-13 00:57N 43°31' E 010°17'0 0.0
2018-Feb-13 00:27N 43°31' E 010°17'0 0.0
2018-Feb-13 00:00N 43°31' E 010°17'0 0.1
2018-Feb-12 23:30N 43°31' E 010°17'0 0.1
2018-Feb-12 23:00N 43°31' E 010°17'0 0.0
2018-Feb-12 22:30N 43°31' E 010°17'0 0.1
2018-Feb-12 22:00N 43°31' E 010°17'0 0.0
2018-Feb-12 21:30N 43°31' E 010°17'0 0.1
2018-Feb-12 21:00N 43°31' E 010°17'0 0.1
2018-Feb-12 20:29N 43°31' E 010°17'0 0.2
2018-Feb-12 19:59N 43°31' E 010°17'0 0.1
2018-Feb-12 19:29N 43°31' E 010°17'0 0.1
2018-Feb-12 18:56N 43°31' E 010°17'0 0.1
2018-Feb-12 18:29N 43°31' E 010°17'0 0.1
2018-Feb-12 17:59N 43°31' E 010°17'0 0.0
2018-Feb-12 17:26N 43°31' E 010°17'0 0.1
2018-Feb-12 16:59N 43°31' E 010°17'0 0.1
2018-Feb-12 16:29N 43°31' E 010°17'0 0.1
2018-Feb-12 15:59N 43°31' E 010°17'0 0.0
2018-Feb-12 15:14N 43°31' E 010°17'0 0.0
2018-Feb-12 14:53N 43°31' E 010°17'0 0.0
2018-Feb-12 14:29N 43°31' E 010°17'0 0.0
2018-Feb-12 13:59N 43°31' E 010°17'0 0.0
2018-Feb-12 13:26N 43°31' E 010°17'0 0.0
2018-Feb-12 12:56N 43°31' E 010°17'0 0.0
2018-Feb-12 12:23N 43°31' E 010°17'0 0.0
2018-Feb-12 11:56N 43°31' E 010°17'0 0.0
2018-Feb-12 11:29N 43°31' E 010°17'0 0.0
2018-Feb-12 10:57N 43°31' E 010°17'0 0.0
2018-Feb-12 10:30N 43°31' E 010°17'0 0.0
2018-Feb-12 10:00N 43°31' E 010°17'0 0.0
2018-Feb-12 09:29N 43°31' E 010°17'0 0.0
2018-Feb-12 09:00N 43°31' E 010°17'0 0.0
2018-Feb-12 08:30N 43°31' E 010°17'0 0.1
2018-Feb-12 08:00N 43°31' E 010°17'0 0.0
2018-Feb-12 07:30N 43°31' E 010°17'0 0.0
2018-Feb-12 07:00N 43°31' E 010°17'0 0.0
2018-Feb-12 06:30N 43°31' E 010°17'2 3.3
2018-Feb-12 06:00N 43°29' E 010°16'2 4.8
2018-Feb-12 05:30N 43°30' E 010°13'3 5.7
2018-Feb-12 05:00N 43°30' E 010°09'3 5.4
2018-Feb-12 04:30N 43°31' E 010°05'3 5.6
2018-Feb-12 04:00N 43°31' E 010°01'3 5.7
2018-Feb-12 03:30N 43°31' E 009°58'3 6.0
2018-Feb-12 03:00N 43°31' E 009°53'3 6.3
2018-Feb-12 02:30N 43°30' E 009°49'3 6.7
2018-Feb-12 01:59N 43°30' E 009°44'3 7.1
2018-Feb-12 01:30N 43°29' E 009°40'3 6.7
2018-Feb-12 01:00N 43°29' E 009°35'3 6.5
2018-Feb-12 00:30N 43°28' E 009°31'3 6.4
2018-Feb-12 00:00N 43°28' E 009°26'4 6.4
2018-Feb-11 23:26N 43°28' E 009°21'98 6.9
2018-Feb-11 09:06N 43°10' E 007°08'1 7.3
2018-Feb-11 08:56N 43°10' E 007°07'93 6.5
2018-Feb-10 18:40N 43°18' E 004°60'1 8.4
2018-Feb-10 18:29N 43°19' E 004°59'4 8.5
2018-Feb-10 18:00N 43°23' E 004°57'6 4.4
2018-Feb-10 16:40N 43°23' E 004°49'0 0.4
2018-Feb-10 16:20N 43°23' E 004°48'  

Dump ship's entire track history